createdAt,value
2022-12-27T00:00:04.442Z,0
2022-12-27T00:06:24.441Z,0
2022-12-27T00:12:47.428Z,0
2022-12-27T00:19:07.502Z,0
2022-12-27T00:25:30.467Z,0
2022-12-27T00:31:50.561Z,0
2022-12-27T00:38:13.369Z,0
2022-12-27T00:44:33.397Z,0
2022-12-27T00:50:56.391Z,0
2022-12-27T00:57:16.528Z,0
2022-12-27T01:03:39.480Z,0
2022-12-27T01:09:59.385Z,0
2022-12-27T01:16:22.397Z,0
2022-12-27T01:22:42.380Z,0
2022-12-27T01:29:05.472Z,0
2022-12-27T01:35:25.851Z,0
2022-12-27T01:41:49.036Z,0
2022-12-27T01:48:09.332Z,0
2022-12-27T01:54:32.553Z,0
2022-12-27T02:00:52.530Z,0
2022-12-27T02:07:15.459Z,0
2022-12-27T02:13:35.379Z,0
2022-12-27T02:19:58.381Z,0
2022-12-27T02:26:18.413Z,0
2022-12-27T02:32:41.523Z,0
2022-12-27T02:39:01.432Z,0
2022-12-27T02:45:24.366Z,0
2022-12-27T02:51:44.434Z,0
2022-12-27T02:58:07.461Z,0
2022-12-27T03:04:27.395Z,0
2022-12-27T03:10:50.488Z,0
2022-12-27T03:17:10.337Z,0
2022-12-27T03:23:33.463Z,0
2022-12-27T03:29:53.365Z,0
2022-12-27T03:36:16.448Z,0
2022-12-27T03:42:36.388Z,0
2022-12-27T03:48:59.350Z,0
2022-12-27T03:55:19.445Z,0
2022-12-27T04:01:42.658Z,0
2022-12-27T04:08:02.520Z,0
2022-12-27T04:32:03.891Z,0
2022-12-27T04:38:23.323Z,0
2022-12-27T04:44:46.358Z,0
2022-12-27T04:51:06.481Z,0
2022-12-27T04:57:29.426Z,0
2022-12-27T05:03:49.445Z,0
2022-12-27T05:10:12.382Z,0
2022-12-27T05:16:32.576Z,0
2022-12-27T05:22:55.466Z,0
2022-12-27T05:29:15.433Z,0
2022-12-27T05:35:38.371Z,0
2022-12-27T05:41:58.388Z,0
2022-12-27T05:48:21.383Z,0
2022-12-27T05:54:41.337Z,0
2022-12-27T06:01:04.546Z,0
2022-12-27T06:07:24.446Z,0
2022-12-27T06:13:47.417Z,0
2022-12-27T06:20:07.366Z,0
2022-12-27T06:26:30.525Z,0
2022-12-27T06:32:50.481Z,0
2022-12-27T06:39:13.436Z,0
2022-12-27T06:45:33.478Z,0
2022-12-27T06:51:59.666Z,0
2022-12-27T06:58:16.484Z,0
2022-12-27T07:04:39.419Z,1
2022-12-27T07:10:59.351Z,4
2022-12-27T07:17:22.344Z,9
2022-12-27T07:23:42.405Z,20
2022-12-27T07:30:05.420Z,40
2022-12-27T07:36:25.381Z,66
2022-12-27T07:42:48.471Z,99
2022-12-27T07:49:12.372Z,141
2022-12-27T07:55:31.474Z,201
2022-12-27T08:01:51.511Z,245
2022-12-27T08:08:14.356Z,314
2022-12-27T08:14:34.449Z,445
2022-12-27T08:20:57.380Z,447
2022-12-27T08:27:17.392Z,522
2022-12-27T08:33:40.434Z,659
2022-12-27T08:40:02.763Z,582
2022-12-27T08:46:23.482Z,642
2022-12-27T08:52:43.417Z,821
2022-12-27T08:59:06.415Z,696
2022-12-27T09:05:26.377Z,1125
2022-12-27T09:11:49.397Z,1016
2022-12-27T09:18:09.473Z,1180
2022-12-27T09:24:32.343Z,1388
2022-12-27T09:40:39.305Z,1648
2022-12-27T09:46:59.512Z,1647
2022-12-27T09:53:22.355Z,2034
2022-12-27T09:59:42.390Z,1541
2022-12-27T10:06:05.485Z,2091
2022-12-27T10:12:29.876Z,1420
2022-12-27T10:18:48.441Z,1119
2022-12-27T10:25:08.428Z,2249
2022-12-27T10:31:31.428Z,2443
2022-12-27T10:37:51.468Z,2488
2022-12-27T10:44:14.446Z,2666
2022-12-27T10:50:34.487Z,2960
2022-12-27T10:56:57.420Z,3401
2022-12-27T11:03:17.356Z,4093
2022-12-27T11:09:43.480Z,1542
2022-12-27T11:16:00.456Z,1416
2022-12-27T11:22:23.359Z,1581
2022-12-27T11:28:43.388Z,1544
2022-12-27T11:35:06.502Z,1838
2022-12-27T11:41:28.118Z,3600
2022-12-27T11:47:49.371Z,4513
2022-12-27T11:54:09.468Z,1972
2022-12-27T12:00:32.652Z,1835
2022-12-27T12:06:52.334Z,1539
2022-12-27T12:13:15.411Z,1099
2022-12-27T12:19:35.434Z,1273
2022-12-27T12:25:58.381Z,1475
2022-12-27T12:32:18.421Z,2520
2022-12-27T12:38:41.360Z,1751
2022-12-27T12:45:01.473Z,1646
2022-12-27T12:51:24.611Z,1657
2022-12-27T12:57:45.376Z,1869
2022-12-27T13:04:08.433Z,3507
2022-12-27T13:10:28.395Z,3006
2022-12-27T13:16:51.456Z,1970
2022-12-27T13:23:11.429Z,2849
2022-12-27T13:29:34.427Z,1274
2022-12-27T13:35:54.415Z,1346
2022-12-27T13:42:17.344Z,2021
2022-12-27T13:48:37.646Z,1314
2022-12-27T13:55:00.415Z,1902
2022-12-27T14:01:20.437Z,2293
2022-12-27T14:07:43.451Z,2325
2022-12-27T14:14:03.352Z,2013
2022-12-27T14:20:26.423Z,1789
2022-12-27T14:26:46.394Z,1318
2022-12-27T14:33:09.428Z,1057
2022-12-27T14:49:16.162Z,431
2022-12-27T14:55:36.322Z,347
2022-12-27T15:01:59.441Z,288
2022-12-27T15:08:19.399Z,206
2022-12-27T15:14:42.653Z,157
2022-12-27T15:21:02.351Z,133
2022-12-27T15:27:25.438Z,95
2022-12-27T15:33:45.448Z,61
2022-12-27T15:40:08.493Z,29
2022-12-27T15:46:32.570Z,14
2022-12-27T15:52:51.796Z,6
2022-12-27T15:59:11.415Z,2
2022-12-27T16:05:34.433Z,1
2022-12-27T16:11:54.391Z,1
2022-12-27T16:18:17.325Z,0
2022-12-27T16:24:37.484Z,0
2022-12-27T16:31:00.445Z,0
2022-12-27T16:37:20.458Z,0
2022-12-27T16:43:43.467Z,0
2022-12-27T16:50:03.401Z,0
2022-12-27T16:56:26.462Z,0
2022-12-27T17:02:46.697Z,0
2022-12-27T17:09:09.655Z,0
2022-12-27T17:15:29.471Z,0
2022-12-27T17:21:52.654Z,0
2022-12-27T17:28:12.424Z,0
2022-12-27T17:34:35.371Z,0
2022-12-27T17:40:55.507Z,0
2022-12-27T17:47:18.473Z,0
2022-12-27T17:53:38.358Z,0
2022-12-27T18:00:01.415Z,0
2022-12-27T18:06:21.323Z,0
2022-12-27T18:12:44.477Z,0
2022-12-27T18:19:04.424Z,0
2022-12-27T18:25:27.403Z,0
2022-12-27T18:31:47.598Z,0
2022-12-27T18:38:10.480Z,0
2022-12-27T18:44:30.423Z,0
2022-12-27T18:50:53.421Z,0
2022-12-27T18:57:13.384Z,0
2022-12-27T19:03:40.533Z,0
2022-12-27T19:09:56.379Z,0
2022-12-27T19:16:19.459Z,0
2022-12-27T19:22:39.351Z,0
2022-12-27T19:29:02.340Z,0
2022-12-27T19:35:22.510Z,0
2022-12-27T19:41:45.349Z,0
2022-12-27T19:58:38.336Z,0
2022-12-27T20:05:01.338Z,0
2022-12-27T20:11:21.508Z,0
2022-12-27T20:17:45.087Z,0
2022-12-27T20:24:04.423Z,0
2022-12-27T20:30:27.515Z,0
2022-12-27T20:36:47.364Z,0
2022-12-27T20:43:10.389Z,0
2022-12-27T20:49:30.361Z,0
2022-12-27T20:55:53.467Z,0
2022-12-27T21:02:13.671Z,0
2022-12-27T21:08:42.690Z,0
2022-12-27T21:14:56.530Z,0
2022-12-27T21:21:19.952Z,0
2022-12-27T21:27:39.363Z,0
2022-12-27T21:34:02.411Z,0
2022-12-27T21:40:22.340Z,0
2022-12-27T21:46:45.492Z,0
2022-12-27T21:53:05.576Z,0
2022-12-27T21:59:28.396Z,0
2022-12-27T22:05:48.462Z,0
2022-12-27T22:12:11.412Z,0
2022-12-27T22:18:31.593Z,0
2022-12-27T22:24:54.455Z,0
2022-12-27T22:31:14.428Z,0
2022-12-27T22:37:37.400Z,0
2022-12-27T22:43:57.399Z,0
2022-12-27T22:50:20.506Z,0
2022-12-27T22:56:40.477Z,0
2022-12-27T23:21:19.411Z,0
2022-12-27T23:27:17.358Z,0
2022-12-27T23:33:40.311Z,0
2022-12-27T23:40:00.429Z,0
2022-12-27T23:46:23.436Z,0
2022-12-27T23:52:43.381Z,0
2022-12-27T23:59:06.509Z,0
